Time;durP1;ratioP1;P1;durP2;ratioP2;P2;SDS_P1;SDS_P2;PMS_P1;PMS_P2;Temp;Humidity;BMP_temperature;BMP_pressure;BME280_temperature;BME280_humidity;BME280_pressure;Samples;Min_cycle;Max_cycle;Signal;HPM_P1;HPM_P2
2023/10/07 00:01:45;;;;;;;12.93;3.58;;;21.80;99.90;;;;;;4980377;28;20421;-84
2023/10/07 00:04:13;;;;;;;14.35;4.03;;;21.90;99.90;;;;;;5002827;28;20115;-83
2023/10/07 00:06:39;;;;;;;14.30;3.97;;;21.90;99.90;;;;;;5036754;28;20085;-84
2023/10/07 00:09:10;;;;;;;10.80;3.50;;;21.80;99.90;;;;;;4978464;28;20046;-81
2023/10/07 00:11:41;;;;;;;11.55;3.53;;;21.80;99.90;;;;;;5025518;28;20053;-84
2023/10/07 00:14:09;;;;;;;15.25;4.53;;;21.80;99.90;;;;;;5009924;28;20107;-84
2023/10/07 00:16:36;;;;;;;11.75;3.88;;;21.80;99.90;;;;;;4995609;28;20048;-84
2023/10/07 00:19:03;;;;;;;12.55;4.28;;;21.80;99.90;;;;;;5011388;28;20060;-83
2023/10/07 00:21:52;;;;;;;11.27;3.70;;;21.90;99.90;;;;;;4966323;28;20048;-82
2023/10/07 00:24:17;;;;;;;10.45;3.50;;;21.90;99.90;;;;;;4982501;28;20064;-83
2023/10/07 00:26:47;;;;;;;11.55;3.97;;;21.80;99.90;;;;;;4982498;28;20037;-84
2023/10/07 00:29:13;;;;;;;14.60;4.35;;;21.80;99.90;;;;;;4986221;28;20516;-83
2023/10/07 00:31:40;;;;;;;12.07;4.60;;;21.80;99.90;;;;;;5007553;28;20037;-83
2023/10/07 00:34:16;;;;;;;13.82;4.63;;;21.80;99.90;;;;;;4981554;28;20045;-83
2023/10/07 00:36:44;;;;;;;12.82;3.88;;;21.80;99.90;;;;;;4970691;28;20037;-84
2023/10/07 00:39:19;;;;;;;10.95;3.70;;;21.90;99.90;;;;;;4989508;28;20084;-83
2023/10/07 00:41:47;;;;;;;15.75;4.05;;;21.80;99.90;;;;;;4985548;28;20033;-83
2023/10/07 00:44:18;;;;;;;8.25;3.47;;;21.90;99.90;;;;;;5012620;28;20120;-84
2023/10/07 00:46:54;;;;;;;15.27;4.13;;;21.80;99.90;;;;;;4976714;28;20041;-83
2023/10/07 00:49:22;;;;;;;10.68;3.88;;;21.80;99.90;;;;;;4972941;28;20125;-83
2023/10/07 00:51:49;;;;;;;11.27;3.90;;;21.70;99.90;;;;;;5007235;28;20084;-82
2023/10/07 00:57:11;;;;;;;11.38;3.83;;;21.60;99.90;;;;;;4993891;28;20137;-83
2023/10/07 00:59:51;;;;;;;10.18;3.58;;;21.60;99.90;;;;;;5039651;28;20457;-83
2023/10/07 01:02:51;;;;;;;14.80;4.45;;;21.70;99.90;;;;;;4996098;28;20510;-81
2023/10/07 01:05:12;;;;;;;11.57;4.05;;;21.60;99.90;;;;;;4993192;28;20063;-82
2023/10/07 01:07:40;;;;;;;16.15;4.47;;;21.50;99.90;;;;;;4979324;28;20041;-82
2023/10/07 01:12:39;;;;;;;12.07;3.83;;;21.50;99.90;;;;;;4984891;28;20034;-81
2023/10/07 01:15:17;;;;;;;11.88;4.88;;;21.40;99.90;;;;;;4983144;28;20073;-83
2023/10/07 01:17:45;;;;;;;11.25;4.22;;;21.40;99.90;;;;;;4983945;28;20497;-83
2023/10/07 01:20:22;;;;;;;13.82;4.22;;;21.30;99.90;;;;;;5012756;28;20046;-84
2023/10/07 01:23:03;;;;;;;13.20;4.68;;;21.40;99.90;;;;;;5022891;28;20480;-84
2023/10/07 01:25:44;;;;;;;17.50;5.35;;;20.70;99.90;;;;;;4995304;28;20038;-85
2023/10/07 01:28:14;;;;;;;16.63;4.82;;;21.30;99.90;;;;;;4993808;28;20072;-85
2023/10/07 01:31:07;;;;;;;14.00;4.50;;;21.30;99.90;;;;;;5002881;28;20394;-84
2023/10/07 01:33:41;;;;;;;18.50;5.55;;;21.30;99.90;;;;;;4984727;28;20034;-83
2023/10/07 01:38:51;;;;;;;13.07;4.43;;;21.30;99.90;;;;;;5008223;28;20052;-84
2023/10/07 01:41:21;;;;;;;13.23;4.60;;;21.30;99.90;;;;;;4994930;28;20438;-83
2023/10/07 01:44:04;;;;;;;17.23;5.25;;;21.30;99.90;;;;;;4990866;28;20492;-83
2023/10/07 01:46:34;;;;;;;11.30;4.75;;;21.20;99.90;;;;;;4995795;28;20049;-83
2023/10/07 01:49:06;;;;;;;13.82;4.10;;;21.20;99.90;;;;;;4999740;28;20118;-83
2023/10/07 01:51:32;;;;;;;16.75;5.05;;;21.30;99.90;;;;;;5045569;28;20045;-83
2023/10/07 01:54:02;;;;;;;14.15;4.85;;;21.30;99.90;;;;;;5007458;28;20045;-81
2023/10/07 01:56:32;;;;;;;16.92;4.60;;;21.40;99.90;;;;;;4995723;28;20041;-81
2023/10/07 01:59:17;;;;;;;10.63;4.53;;;21.50;99.90;;;;;;5011194;28;20037;-84
2023/10/07 02:01:51;;;;;;;8.55;3.47;;;21.20;99.90;;;;;;4990357;28;20781;-84
2023/10/07 02:04:18;;;;;;;15.03;4.17;;;21.50;99.90;;;;;;4996827;28;20053;-84
2023/10/07 02:06:51;;;;;;;13.77;4.00;;;21.30;99.90;;;;;;5008708;28;20296;-84
2023/10/07 02:10:19;;;;;;;;;;;;;;;;;;;;;
2023/10/07 02:12:54;;;;;;;15.63;3.90;;;21.40;99.90;;;;;;4993493;28;20564;-82
2023/10/07 02:15:20;;;;;;;15.18;3.88;;;21.60;99.90;;;;;;4969143;28;20042;-83
2023/10/07 02:17:47;;;;;;;10.02;3.30;;;21.60;99.90;;;;;;4997459;28;20107;-84
2023/10/07 02:20:25;;;;;;;10.88;3.60;;;21.60;99.90;;;;;;4997998;28;20058;-83
2023/10/07 02:22:52;;;;;;;10.38;3.47;;;21.40;99.90;;;;;;5017236;28;20724;-84
2023/10/07 02:25:26;;;;;;;13.15;3.47;;;21.60;99.90;;;;;;5008902;28;20053;-83
2023/10/07 02:27:56;;;;;;;8.57;2.90;;;21.50;99.90;;;;;;4992976;28;20774;-82
2023/10/07 02:30:25;;;;;;;11.25;3.90;;;21.50;99.90;;;;;;4967598;28;20037;-86
2023/10/07 02:32:52;;;;;;;8.38;3.50;;;21.50;99.90;;;;;;4980430;28;20140;-88
2023/10/07 02:35:19;;;;;;;9.90;3.50;;;21.50;99.90;;;;;;5025978;28;20469;-84
2023/10/07 02:37:49;;;;;;;11.18;3.50;;;21.60;99.90;;;;;;5006118;28;20034;-84
2023/10/07 02:40:21;;;;;;;16.80;3.60;;;21.60;99.90;;;;;;4990343;28;20038;-83
2023/10/07 02:42:48;;;;;;;13.05;4.20;;;21.60;99.90;;;;;;4983494;28;20037;-85
2023/10/07 02:45:20;;;;;;;11.38;3.20;;;21.60;99.90;;;;;;4996836;28;20421;-83
2023/10/07 02:48:00;;;;;;;12.82;3.35;;;21.80;99.90;;;;;;4965774;28;20128;-83
2023/10/07 02:50:31;;;;;;;10.48;3.92;;;21.70;99.90;;;;;;4985103;28;20038;-85
2023/10/07 02:53:00;;;;;;;14.48;3.63;;;21.70;99.90;;;;;;4976934;28;20201;-84
2023/10/07 02:55:29;;;;;;;9.10;4.10;;;20.80;99.90;;;;;;5012056;28;20068;-85
2023/10/07 02:57:56;;;;;;;11.25;3.67;;;21.70;99.90;;;;;;5008778;28;20223;-84
2023/10/07 03:00:29;;;;;;;10.68;3.42;;;21.90;99.90;;;;;;4995882;28;20462;-82
2023/10/07 03:05:46;;;;;;;11.55;3.83;;;21.70;99.90;;;;;;4994302;28;20042;-82
2023/10/07 03:08:22;;;;;;;8.68;3.70;;;21.90;99.90;;;;;;4995388;28;20045;-84
2023/10/07 03:11:03;;;;;;;8.45;3.35;;;21.90;99.90;;;;;;4986983;28;20110;-83
2023/10/07 03:13:30;;;;;;;10.95;3.40;;;21.80;99.90;;;;;;4989482;28;20133;-84
2023/10/07 03:18:41;;;;;;;9.02;3.33;;;21.90;99.90;;;;;;4995204;28;20091;-81
2023/10/07 03:21:10;;;;;;;11.48;3.85;;;22.00;99.90;;;;;;5012770;28;20078;-82
2023/10/07 03:23:48;;;;;;;10.05;3.08;;;21.90;99.90;;;;;;5017807;28;20371;-83
2023/10/07 03:26:18;;;;;;;8.48;3.45;;;21.90;99.90;;;;;;4979130;28;20426;-82
2023/10/07 03:28:54;;;;;;;9.77;3.30;;;22.00;99.90;;;;;;4977517;28;20045;-82
2023/10/07 03:31:33;;;;;;;8.40;2.85;;;22.10;99.90;;;;;;5029563;28;20043;-82
2023/10/07 03:33:59;;;;;;;8.52;3.20;;;21.90;99.90;;;;;;4999226;28;20077;-82
2023/10/07 03:36:41;;;;;;;10.70;3.50;;;21.90;99.90;;;;;;5000455;28;20091;-82
2023/10/07 03:39:26;;;;;;;9.35;3.40;;;22.10;99.90;;;;;;4988300;28;20124;-82
2023/10/07 03:41:55;;;;;;;15.40;3.60;;;21.80;99.90;;;;;;4999101;28;20156;-82
2023/10/07 03:44:23;;;;;;;11.68;3.70;;;22.00;99.90;;;;;;5009287;28;20124;-82
2023/10/07 03:46:54;;;;;;;9.52;3.28;;;21.90;99.90;;;;;;5030778;28;20049;-82
2023/10/07 03:49:21;;;;;;;11.05;3.67;;;21.90;99.90;;;;;;5014293;28;20070;-82
2023/10/07 03:51:48;;;;;;;8.70;3.38;;;22.00;99.90;;;;;;5046865;28;20056;-83
2023/10/07 03:54:29;;;;;;;8.15;3.15;;;21.90;99.90;;;;;;5010375;28;20071;-82
2023/10/07 03:56:56;;;;;;;10.00;3.30;;;22.00;99.90;;;;;;4992554;28;20033;-82
2023/10/07 03:59:22;;;;;;;10.68;4.45;;;22.10;99.90;;;;;;4991225;28;20179;-82
2023/10/07 04:01:53;;;;;;;12.77;3.38;;;22.10;99.90;;;;;;5011263;28;20553;-82
2023/10/07 04:04:23;;;;;;;9.55;3.35;;;21.90;99.90;;;;;;4997693;28;20080;-82
2023/10/07 04:06:50;;;;;;;12.25;3.28;;;22.00;99.90;;;;;;5013689;28;20127;-82
2023/10/07 04:09:16;;;;;;;13.10;3.85;;;22.00;99.90;;;;;;5025326;28;20115;-83
2023/10/07 04:11:52;;;;;;;10.85;3.67;;;21.90;99.90;;;;;;5003632;28;20041;-83
2023/10/07 04:14:35;;;;;;;9.77;3.13;;;21.80;99.90;;;;;;4993492;28;20038;-84
2023/10/07 04:17:23;;;;;;;13.07;4.07;;;21.90;99.90;;;;;;5026362;28;20378;-84
2023/10/07 04:19:55;;;;;;;11.23;3.58;;;21.90;99.90;;;;;;5006657;28;20421;-84
2023/10/07 04:22:24;;;;;;;;;;;22.00;99.90;;;;;;4979048;28;20042;-85
2023/10/07 04:24:50;;;;;;;11.15;3.75;;;21.80;99.90;;;;;;4978197;28;19921;-84
2023/10/07 04:27:19;;;;;;;9.18;3.63;;;22.00;99.90;;;;;;5028015;28;20045;-85
2023/10/07 04:29:46;;;;;;;11.57;4.05;;;21.90;99.90;;;;;;4987135;28;20734;-84
2023/10/07 04:32:21;;;;;;;8.48;3.72;;;21.90;99.90;;;;;;5009353;28;20050;-84
2023/10/07 04:37:47;;;;;;;14.30;3.85;;;22.00;99.90;;;;;;5028148;28;20046;-84
2023/10/07 04:45:49;;;;;;;17.83;4.65;;;21.90;99.90;;;;;;5031968;28;20038;-83
2023/10/07 04:48:24;;;;;;;12.23;3.90;;;21.90;99.90;;;;;;5028306;28;21270;-83
2023/10/07 04:51:03;;;;;;;12.52;3.70;;;21.90;99.90;;;;;;5018480;28;20034;-83
2023/10/07 04:53:40;;;;;;;12.98;3.80;;;22.00;99.90;;;;;;5020279;28;20117;-85
2023/10/07 04:56:20;;;;;;;11.18;3.65;;;21.90;99.90;;;;;;4998672;28;20037;-85
2023/10/07 04:58:47;;;;;;;10.27;3.78;;;22.00;99.90;;;;;;4997405;28;20095;-85
2023/10/07 05:01:31;;;;;;;11.27;3.47;;;21.90;99.90;;;;;;5015324;28;20048;-85
2023/10/07 05:04:09;;;;;;;9.57;3.78;;;22.10;99.90;;;;;;5018597;28;20053;-84
2023/10/07 05:06:37;;;;;;;8.52;3.95;;;22.10;99.90;;;;;;4994904;28;20060;-85
2023/10/07 05:09:09;;;;;;;11.18;3.60;;;21.90;99.90;;;;;;5027148;28;20465;-85
2023/10/07 05:11:42;;;;;;;14.20;3.80;;;22.00;99.90;;;;;;4988563;28;20034;-85
2023/10/07 05:14:10;;;;;;;10.52;3.90;;;22.10;99.90;;;;;;4993565;28;20045;-83
2023/10/07 05:16:39;;;;;;;9.18;3.67;;;22.10;99.90;;;;;;5009682;28;20048;-84
2023/10/07 05:19:09;;;;;;;10.93;4.00;;;21.90;99.90;;;;;;4992809;28;20050;-83
2023/10/07 05:21:38;;;;;;;11.95;4.32;;;21.90;99.90;;;;;;4993481;28;20490;-84
2023/10/07 05:24:09;;;;;;;18.30;4.13;;;22.10;99.90;;;;;;5023782;28;20045;-83
2023/10/07 05:26:35;;;;;;;14.88;4.20;;;21.90;99.90;;;;;;5011399;28;20085;-83
2023/10/07 05:29:02;;;;;;;9.63;3.45;;;21.90;99.90;;;;;;4977541;28;20069;-84
2023/10/07 05:31:30;;;;;;;12.75;3.55;;;22.00;99.90;;;;;;4977690;28;20048;-84
2023/10/07 05:33:59;;;;;;;12.07;3.47;;;21.90;99.90;;;;;;4993285;28;20060;-84
2023/10/07 05:36:32;;;;;;;11.65;3.50;;;22.10;99.90;;;;;;4993257;28;20399;-81
2023/10/07 05:39:00;;;;;;;8.68;3.08;;;21.90;99.90;;;;;;5009316;28;20117;-85
2023/10/07 05:41:28;;;;;;;9.20;3.83;;;22.50;99.90;;;;;;4986298;28;20044;-83
2023/10/07 05:43:54;;;;;;;7.45;3.38;;;22.00;99.90;;;;;;5003204;28;20457;-84
2023/10/07 05:46:20;;;;;;;14.95;3.58;;;21.90;99.90;;;;;;5000446;28;20030;-83
2023/10/07 05:48:47;;;;;;;11.00;3.10;;;21.90;99.90;;;;;;5002330;28;20042;-85
2023/10/07 05:51:13;;;;;;;7.70;2.90;;;22.10;99.90;;;;;;4992954;28;20079;-87
2023/10/07 05:53:48;;;;;;;10.05;4.28;;;21.90;99.90;;;;;;5001910;28;20037;-86
2023/10/07 05:56:15;;;;;;;9.07;2.88;;;22.00;99.90;;;;;;4994524;28;20076;-86
2023/10/07 05:58:41;;;;;;;11.45;3.55;;;22.00;99.90;;;;;;4961560;28;20033;-85
2023/10/07 06:01:11;;;;;;;10.88;3.28;;;22.00;99.90;;;;;;4999364;28;20064;-83
2023/10/07 06:03:38;;;;;;;11.07;3.67;;;21.90;99.90;;;;;;5004877;28;20149;-83
2023/10/07 06:06:04;;;;;;;10.93;3.75;;;22.00;99.90;;;;;;4995692;28;20049;-80
2023/10/07 06:08:35;;;;;;;11.13;3.92;;;22.00;99.90;;;;;;4995219;28;20382;-82
2023/10/07 06:11:02;;;;;;;12.00;3.03;;;22.00;99.90;;;;;;4991942;28;20551;-81
2023/10/07 06:13:29;;;;;;;8.77;3.08;;;21.90;99.90;;;;;;5018323;28;20048;-80
2023/10/07 06:15:57;;;;;;;11.40;3.42;;;22.00;99.90;;;;;;4996300;28;20120;-80
2023/10/07 06:18:25;;;;;;;10.43;3.10;;;21.70;99.90;;;;;;5000982;28;20073;-82
2023/10/07 06:20:52;;;;;;;10.23;3.63;;;21.80;99.90;;;;;;4958248;28;20061;-82
2023/10/07 06:23:23;;;;;;;9.20;3.20;;;21.80;99.90;;;;;;4960031;28;20041;-83
2023/10/07 06:25:51;;;;;;;8.90;2.78;;;21.80;99.90;;;;;;4974812;28;20042;-84
2023/10/07 06:31:10;;;;;;;8.63;3.05;;;21.80;99.90;;;;;;4969414;28;20061;-83
2023/10/07 06:34:00;;;;;;;13.52;3.58;;;21.80;99.90;;;;;;4994089;28;20612;-82
2023/10/07 06:36:27;;;;;;;9.30;3.63;;;21.70;99.90;;;;;;4962868;28;20101;-83
2023/10/07 06:38:58;;;;;;;11.00;3.58;;;21.80;99.90;;;;;;4939029;28;20541;-83
2023/10/07 06:41:29;;;;;;;9.85;3.33;;;21.60;99.90;;;;;;4959627;28;20034;-83
2023/10/07 06:43:59;;;;;;;12.05;3.42;;;21.70;99.90;;;;;;4981528;28;20406;-83
2023/10/07 06:46:40;;;;;;;11.15;3.58;;;21.90;99.90;;;;;;4959294;28;20077;-84
2023/10/07 06:49:18;;;;;;;9.15;3.33;;;21.60;99.90;;;;;;4961302;28;20391;-83
2023/10/07 06:51:54;;;;;;;9.93;4.13;;;21.70;99.90;;;;;;4965217;28;20080;-83
2023/10/07 06:54:32;;;;;;;9.25;3.38;;;21.80;99.90;;;;;;4993726;28;20045;-83
2023/10/07 06:57:01;;;;;;;11.10;3.40;;;21.70;99.90;;;;;;4970067;28;20510;-84
2023/10/07 06:59:29;;;;;;;9.48;3.03;;;21.70;99.90;;;;;;4973851;28;20352;-83
2023/10/07 07:02:05;;;;;;;13.50;3.13;;;21.80;99.90;;;;;;4974617;28;20043;-85
2023/10/07 07:04:35;;;;;;;11.07;3.08;;;21.90;99.90;;;;;;4976545;28;20041;-83
2023/10/07 07:07:10;;;;;;;8.18;3.00;;;21.80;99.90;;;;;;4971438;28;20133;-82
2023/10/07 07:09:58;;;;;;;8.93;3.10;;;21.70;99.90;;;;;;4956007;28;20131;-81
2023/10/07 07:12:26;;;;;;;7.75;2.70;;;22.00;99.90;;;;;;4974888;28;20437;-84
2023/10/07 07:15:26;;;;;;;9.88;3.30;;;21.80;99.90;;;;;;4978470;28;20064;-83
2023/10/07 07:18:02;;;;;;;10.95;3.10;;;22.00;99.90;;;;;;4967240;28;20106;-83
2023/10/07 07:20:48;;;;;;;8.15;2.88;;;21.90;99.90;;;;;;4991335;28;20161;-82
2023/10/07 07:23:22;;;;;;;10.93;3.10;;;21.90;99.90;;;;;;4984409;28;20041;-83
2023/10/07 07:25:59;;;;;;;9.35;2.90;;;22.10;99.90;;;;;;4999573;28;20043;-81
2023/10/07 07:28:27;;;;;;;6.50;2.50;;;22.10;99.90;;;;;;4984191;28;20575;-81
2023/10/07 07:30:57;;;;;;;10.10;3.20;;;22.10;99.90;;;;;;5023236;28;20466;-81
2023/10/07 07:33:35;;;;;;;11.88;2.95;;;22.20;99.90;;;;;;4954485;28;20050;-81
2023/10/07 07:39:09;;;;;;;11.93;3.30;;;22.00;99.90;;;;;;4930825;29;20066;-81
2023/10/07 07:41:38;;;;;;;8.40;3.42;;;22.10;99.90;;;;;;4970634;28;20120;-81
2023/10/07 07:44:11;;;;;;;9.27;3.10;;;22.10;99.90;;;;;;4961247;28;20168;-80
2023/10/07 07:46:53;;;;;;;10.50;2.80;;;22.20;99.90;;;;;;4997175;28;20087;-81
2023/10/07 07:49:19;;;;;;;9.82;2.80;;;22.10;99.90;;;;;;4997820;28;20072;-80
2023/10/07 07:51:51;;;;;;;7.15;2.90;;;22.10;99.90;;;;;;5001506;28;20045;-81
2023/10/07 07:54:18;;;;;;;9.77;2.97;;;22.30;99.90;;;;;;5028193;28;20236;-81
2023/10/07 07:56:45;;;;;;;8.55;3.08;;;22.30;99.90;;;;;;5014924;28;20124;-79
2023/10/07 07:59:14;;;;;;;9.10;2.88;;;22.30;99.90;;;;;;4995367;28;20167;-81
2023/10/07 08:01:44;;;;;;;10.35;3.33;;;22.20;99.90;;;;;;4980812;28;20037;-82
2023/10/07 08:04:17;;;;;;;8.45;3.33;;;22.40;99.90;;;;;;4992517;28;21043;-82
2023/10/07 08:06:58;;;;;;;8.25;2.97;;;22.30;99.90;;;;;;5012227;28;20052;-81
2023/10/07 08:09:28;;;;;;;11.00;2.97;;;22.40;99.90;;;;;;5030680;28;20068;-84
2023/10/07 08:11:53;;;;;;;12.07;3.28;;;22.50;99.90;;;;;;5030197;28;20037;-82
2023/10/07 08:14:22;;;;;;;8.60;2.80;;;22.50;99.90;;;;;;5031653;28;20539;-82
2023/10/07 08:16:50;;;;;;;8.32;2.90;;;22.50;99.90;;;;;;4978579;28;20571;-82
2023/10/07 08:19:20;;;;;;;12.57;3.10;;;22.50;99.90;;;;;;5021095;28;20037;-83
2023/10/07 08:21:53;;;;;;;7.20;2.50;;;22.60;99.90;;;;;;5009704;28;20466;-82
2023/10/07 08:24:23;;;;;;;8.85;3.15;;;22.60;99.90;;;;;;4997031;28;20076;-82
2023/10/07 08:26:49;;;;;;;8.73;2.90;;;22.60;99.90;;;;;;5013867;28;20041;-82
2023/10/07 08:29:40;;;;;;;9.32;2.55;;;22.60;99.90;;;;;;5026661;28;20037;-82
2023/10/07 08:32:13;;;;;;;9.57;2.88;;;22.70;99.90;;;;;;5011682;28;20929;-82
2023/10/07 08:34:49;;;;;;;9.43;3.20;;;22.70;99.90;;;;;;4999526;28;20073;-82
2023/10/07 08:37:16;;;;;;;8.80;3.30;;;22.80;99.90;;;;;;4973382;28;20072;-82
2023/10/07 08:39:46;;;;;;;12.30;3.78;;;22.80;99.90;;;;;;5036512;28;20087;-82
2023/10/07 08:42:18;;;;;;;14.55;3.15;;;22.80;99.90;;;;;;4979905;28;20045;-83
2023/10/07 08:44:51;;;;;;;9.25;3.22;;;22.80;99.90;;;;;;4996479;28;20046;-82
2023/10/07 08:47:22;;;;;;;9.02;3.20;;;22.80;99.90;;;;;;4993367;28;20049;-81
2023/10/07 08:49:49;;;;;;;11.13;3.55;;;22.80;99.90;;;;;;4995597;28;20053;-81
2023/10/07 08:52:16;;;;;;;9.98;3.50;;;22.80;99.90;;;;;;4982752;28;20820;-80
2023/10/07 08:54:47;;;;;;;12.80;4.00;;;23.00;99.90;;;;;;4980974;28;20056;-81
2023/10/07 08:57:19;;;;;;;8.90;3.80;;;22.90;99.90;;;;;;4996837;28;20743;-80
2023/10/07 08:59:52;;;;;;;14.73;3.67;;;23.00;99.90;;;;;;4996441;28;20041;-82
2023/10/07 09:02:30;;;;;;;10.18;3.70;;;23.00;99.90;;;;;;4996895;28;20060;-81
2023/10/07 09:04:59;;;;;;;10.77;3.80;;;23.00;99.90;;;;;;4997667;28;20049;-82
2023/10/07 09:07:31;;;;;;;7.25;3.25;;;23.00;99.90;;;;;;4975900;28;20348;-81
2023/10/07 09:10:10;;;;;;;9.93;4.22;;;22.90;99.90;;;;;;4991827;28;20041;-80
2023/10/07 09:12:45;;;;;;;10.95;4.10;;;22.90;99.90;;;;;;5011846;28;20080;-82
2023/10/07 09:15:26;;;;;;;10.68;3.20;;;22.90;99.90;;;;;;5003640;28;20042;-80
2023/10/07 09:18:17;;;;;;;10.40;3.80;;;22.90;99.90;;;;;;4983569;28;20045;-80
2023/10/07 09:20:45;;;;;;;10.52;3.67;;;23.00;99.90;;;;;;5000949;28;20046;-79
2023/10/07 09:23:20;;;;;;;12.85;4.18;;;23.00;99.90;;;;;;4995319;28;20077;-80
2023/10/07 09:25:50;;;;;;;9.35;3.22;;;23.00;99.90;;;;;;5014505;28;20049;-81
2023/10/07 09:28:18;;;;;;;11.40;3.33;;;23.20;99.90;;;;;;5014941;28;20041;-80
2023/10/07 09:30:45;;;;;;;11.60;3.53;;;23.10;99.90;;;;;;5005855;28;20097;-78
2023/10/07 09:33:17;;;;;;;9.02;3.65;;;23.10;99.90;;;;;;5004687;28;20045;-80
2023/10/07 09:35:44;;;;;;;11.93;3.47;;;23.00;99.90;;;;;;5011567;28;20053;-79
2023/10/07 09:38:33;;;;;;;13.18;3.42;;;23.00;99.90;;;;;;5012881;28;20041;-80
2023/10/07 09:41:12;;;;;;;9.45;3.58;;;22.90;99.90;;;;;;5002078;28;20124;-80
2023/10/07 09:43:47;;;;;;;11.75;3.40;;;22.90;99.90;;;;;;5014595;28;20356;-71
2023/10/07 09:46:27;;;;;;;13.45;4.18;;;22.90;99.90;;;;;;5040661;28;20073;-79
2023/10/07 09:48:53;;;;;;;12.85;3.53;;;23.20;99.90;;;;;;5011328;28;20427;-80
2023/10/07 09:51:23;;;;;;;8.98;3.42;;;22.80;99.90;;;;;;4995098;28;20037;-79
2023/10/07 09:54:16;;;;;;;10.20;3.53;;;22.80;99.90;;;;;;4991389;28;20041;-79
2023/10/07 09:57:06;;;;;;;13.32;3.83;;;22.80;99.90;;;;;;4990262;28;20033;-80
2023/10/07 10:03:20;;;;;;;;;;;22.80;99.90;;;;;;5009549;28;20669;-77
2023/10/07 10:06:16;;;;;;;10.35;4.10;;;22.80;99.90;;;;;;4989332;28;20333;-80
2023/10/07 10:09:08;;;;;;;14.20;3.60;;;22.80;99.90;;;;;;5002320;28;20041;-81
2023/10/07 10:17:00;;;;;;;11.00;4.05;;;22.90;99.90;;;;;;4991746;28;20037;-79
2023/10/07 10:19:47;;;;;;;11.27;3.63;;;22.90;99.90;;;;;;5014780;28;20517;-78
2023/10/07 10:22:23;;;;;;;11.35;3.60;;;22.90;99.90;;;;;;4998292;28;20041;-79
2023/10/07 10:24:57;;;;;;;11.13;3.67;;;23.00;99.90;;;;;;4983065;28;20046;-78
2023/10/07 10:27:26;;;;;;;9.65;3.97;;;23.10;99.90;;;;;;4997522;28;20045;-78
2023/10/07 10:30:04;;;;;;;12.07;4.28;;;23.20;99.90;;;;;;4967209;28;20041;-78
2023/10/07 10:32:36;;;;;;;9.00;3.95;;;23.20;99.90;;;;;;4998180;28;20029;-79
2023/10/07 10:35:06;;;;;;;14.70;4.65;;;23.30;99.90;;;;;;5016435;28;20546;-77
2023/10/07 10:37:34;;;;;;;15.93;5.05;;;23.40;99.90;;;;;;4981429;28;20390;-78
2023/10/07 10:40:12;;;;;;;10.85;3.63;;;23.40;99.90;;;;;;4996584;28;20071;-77
2023/10/07 10:42:43;;;;;;;11.43;3.97;;;23.40;99.90;;;;;;5013294;28;20093;-79
2023/10/07 10:45:24;;;;;;;12.18;4.00;;;23.40;99.90;;;;;;5043790;28;20041;-79
2023/10/07 10:47:52;;;;;;;10.93;4.18;;;23.40;99.90;;;;;;5042814;28;20038;-80
2023/10/07 10:50:22;;;;;;;10.63;3.72;;;23.50;99.90;;;;;;4996089;28;20049;-77
2023/10/07 10:52:48;;;;;;;11.07;4.13;;;23.50;99.90;;;;;;4995521;28;20049;-78
2023/10/07 10:55:18;;;;;;;14.13;3.47;;;23.50;99.90;;;;;;4979304;28;20116;-80
2023/10/07 10:57:44;;;;;;;13.52;3.50;;;23.50;99.90;;;;;;5029506;28;20033;-79
2023/10/07 11:00:21;;;;;;;8.02;3.60;;;23.60;99.90;;;;;;4997165;28;20037;-79
2023/10/07 11:02:50;;;;;;;12.48;4.18;;;23.60;99.90;;;;;;5012968;28;20508;-80
2023/10/07 11:05:16;;;;;;;8.35;3.40;;;23.50;99.90;;;;;;5012200;28;20210;-80
2023/10/07 11:07:43;;;;;;;12.57;4.50;;;23.50;99.90;;;;;;4974418;28;20038;-80
2023/10/07 11:10:20;;;;;;;15.90;4.15;;;23.40;99.90;;;;;;4979619;28;20057;-80
2023/10/07 11:12:56;;;;;;;12.02;4.15;;;23.30;99.90;;;;;;5014167;28;20045;-80
2023/10/07 11:15:26;;;;;;;11.60;4.20;;;23.30;99.90;;;;;;5006922;28;20037;-80
2023/10/07 11:17:58;;;;;;;12.15;3.85;;;23.30;99.90;;;;;;4979868;28;20073;-80
2023/10/07 11:20:30;;;;;;;10.10;4.43;;;23.30;99.90;;;;;;5012249;28;20061;-80
2023/10/07 11:22:57;;;;;;;16.95;4.15;;;23.30;99.90;;;;;;5015627;28;20053;-79
2023/10/07 11:25:25;;;;;;;10.68;4.03;;;23.30;99.90;;;;;;5012424;28;20047;-80
2023/10/07 11:27:54;;;;;;;9.80;4.03;;;23.30;99.90;;;;;;5012728;28;20048;-80
2023/10/07 11:30:21;;;;;;;13.27;3.53;;;23.20;99.90;;;;;;4996442;28;20103;-80
2023/10/07 11:32:47;;;;;;;10.65;4.05;;;23.20;99.90;;;;;;4986080;28;20045;-79
2023/10/07 11:35:20;;;;;;;8.15;4.05;;;23.20;99.90;;;;;;4991628;28;20038;-79
2023/10/07 11:37:57;;;;;;;11.82;3.95;;;23.20;99.90;;;;;;5024706;28;20030;-79
2023/10/07 11:40:27;;;;;;;11.82;3.60;;;23.20;99.90;;;;;;5002041;28;20053;-80
2023/10/07 11:42:53;;;;;;;10.82;3.80;;;23.20;99.90;;;;;;5031331;28;20037;-80
2023/10/07 11:45:22;;;;;;;12.68;3.60;;;23.10;99.90;;;;;;5000373;28;20045;-79
2023/10/07 11:47:49;;;;;;;9.25;3.85;;;23.10;99.90;;;;;;5008953;28;20064;-80
2023/10/07 11:50:16;;;;;;;8.70;3.53;;;23.10;99.90;;;;;;4987571;28;20050;-80
2023/10/07 11:52:43;;;;;;;10.48;4.18;;;23.20;99.90;;;;;;4992996;28;20052;-81
2023/10/07 11:55:09;;;;;;;12.35;4.65;;;23.20;99.90;;;;;;5002267;28;20053;-80
2023/10/07 11:57:38;;;;;;;9.80;3.58;;;23.30;99.90;;;;;;4993829;28;20041;-80
2023/10/07 12:00:11;;;;;;;11.30;4.60;;;23.30;99.90;;;;;;5008411;28;20057;-80
2023/10/07 12:02:39;;;;;;;9.00;3.60;;;23.30;99.90;;;;;;4993476;28;20581;-79
2023/10/07 12:05:07;;;;;;;9.18;4.15;;;23.30;99.90;;;;;;5007537;28;20053;-80
2023/10/07 12:07:35;;;;;;;10.02;3.92;;;23.30;99.90;;;;;;4991943;28;20073;-81
2023/10/07 12:10:04;;;;;;;12.82;4.22;;;23.20;99.90;;;;;;5021345;28;20575;-81
2023/10/07 12:12:32;;;;;;;10.27;4.22;;;23.20;99.90;;;;;;5029511;28;20783;-81
2023/10/07 12:15:07;;;;;;;10.23;3.97;;;23.20;99.90;;;;;;4989435;28;20135;-82
2023/10/07 12:17:35;;;;;;;9.15;3.70;;;23.20;99.90;;;;;;5012124;28;20041;-80
2023/10/07 12:20:02;;;;;;;10.60;4.38;;;23.20;99.90;;;;;;5008637;28;20410;-80
2023/10/07 12:22:28;;;;;;;11.90;3.90;;;23.10;99.90;;;;;;4979019;28;20059;-80
2023/10/07 12:25:00;;;;;;;13.70;4.22;;;23.10;99.90;;;;;;5013060;28;20414;-81
2023/10/07 12:27:27;;;;;;;14.50;4.10;;;23.10;99.90;;;;;;4995558;28;20683;-81
2023/10/07 12:29:53;;;;;;;13.10;4.28;;;23.20;99.90;;;;;;4973084;28;20552;-81
2023/10/07 12:32:19;;;;;;;10.90;4.85;;;23.20;99.90;;;;;;4999456;28;20041;-80
2023/10/07 12:34:47;;;;;;;10.75;3.83;;;23.20;99.90;;;;;;5030848;28;20052;-81
2023/10/07 12:37:13;;;;;;;13.13;4.20;;;23.20;99.90;;;;;;4992292;28;20718;-80
2023/10/07 12:39:44;;;;;;;15.55;4.53;;;23.30;99.90;;;;;;5012775;28;20136;-81
2023/10/07 12:42:12;;;;;;;9.35;3.65;;;23.40;99.90;;;;;;4978947;28;20045;-81
2023/10/07 12:44:39;;;;;;;12.60;4.03;;;23.40;99.90;;;;;;5006897;28;20135;-81
2023/10/07 12:47:08;;;;;;;10.48;3.95;;;23.40;99.90;;;;;;4990442;28;20797;-82
2023/10/07 12:49:40;;;;;;;12.82;4.18;;;23.40;99.90;;;;;;4990349;28;20040;-80
2023/10/07 12:52:05;;;;;;;12.95;4.28;;;23.40;99.90;;;;;;4974543;28;20041;-80
2023/10/07 12:54:32;;;;;;;9.60;3.97;;;23.30;99.90;;;;;;5003470;28;20118;-81
2023/10/07 12:56:57;;;;;;;11.27;3.67;;;23.30;99.90;;;;;;4986192;28;20042;-79
2023/10/07 12:59:23;;;;;;;13.88;4.78;;;23.30;99.90;;;;;;4994104;28;20052;-79
2023/10/07 13:01:51;;;;;;;7.88;3.92;;;23.20;99.90;;;;;;5011372;28;20042;-80
2023/10/07 13:04:25;;;;;;;13.07;4.50;;;23.20;99.90;;;;;;4992981;28;20056;-81
2023/10/07 13:07:14;;;;;;;;;;;23.10;99.90;;;;;;5022848;28;20049;-80
2023/10/07 13:09:42;;;;;;;12.50;4.78;;;23.10;99.90;;;;;;5026929;28;19921;-82
2023/10/07 13:12:15;;;;;;;9.45;3.75;;;23.00;99.90;;;;;;5008380;28;20076;-80
2023/10/07 13:14:42;;;;;;;14.80;4.05;;;22.90;99.90;;;;;;4995388;28;20482;-81
2023/10/07 13:17:13;;;;;;;13.85;3.88;;;22.90;99.90;;;;;;4991711;28;20037;-80
2023/10/07 13:19:40;;;;;;;11.63;4.00;;;22.90;99.90;;;;;;4979446;28;20428;-80
2023/10/07 13:22:06;;;;;;;9.43;3.92;;;22.80;99.90;;;;;;4992250;28;20147;-80
2023/10/07 13:24:32;;;;;;;14.70;3.97;;;22.80;99.90;;;;;;4976211;28;20084;-80
2023/10/07 13:26:58;;;;;;;13.00;4.55;;;22.80;99.90;;;;;;5025584;28;20508;-80
2023/10/07 13:29:24;;;;;;;12.23;4.05;;;22.80;99.90;;;;;;5026307;28;20051;-80
2023/10/07 13:31:53;;;;;;;12.63;3.85;;;22.80;99.90;;;;;;4957772;28;20038;-80
2023/10/07 13:34:20;;;;;;;8.10;3.88;;;22.70;99.90;;;;;;4987287;28;20692;-80
2023/10/07 13:36:46;;;;;;;12.90;4.47;;;22.80;99.90;;;;;;4983296;28;20053;-80
2023/10/07 13:39:18;;;;;;;13.73;4.07;;;22.70;99.90;;;;;;4978766;28;20049;-80
2023/10/07 13:41:47;;;;;;;11.32;4.10;;;22.70;99.90;;;;;;4990628;28;20034;-80